sensor_id;sensor_type;location;lat;lon;timestamp;temperature;humidity
19586;DHT22;9939;49.246;9.106;2023-04-25T00:01:26;8.10;99.90
19586;DHT22;9939;49.246;9.106;2023-04-25T00:04:13;8.00;99.90
19586;DHT22;9939;49.246;9.106;2023-04-25T00:07:01;7.80;99.90
19586;DHT22;9939;49.246;9.106;2023-04-25T00:09:49;8.00;99.90
19586;DHT22;9939;49.246;9.106;2023-04-25T00:12:36;7.90;99.90
19586;DHT22;9939;49.246;9.106;2023-04-25T00:15:24;8.00;99.90
19586;DHT22;9939;49.246;9.106;2023-04-25T00:18:11;8.00;99.90
19586;DHT22;9939;49.246;9.106;2023-04-25T00:20:58;8.10;99.90
19586;DHT22;9939;49.246;9.106;2023-04-25T00:23:46;8.00;99.90
19586;DHT22;9939;49.246;9.106;2023-04-25T00:26:34;8.10;99.90
19586;DHT22;9939;49.246;9.106;2023-04-25T00:29:22;8.10;99.90
19586;DHT22;9939;49.246;9.106;2023-04-25T00:32:10;8.00;99.90
19586;DHT22;9939;49.246;9.106;2023-04-25T00:34:58;8.00;99.90
19586;DHT22;9939;49.246;9.106;2023-04-25T00:37:46;8.20;99.90
19586;DHT22;9939;49.246;9.106;2023-04-25T00:40:34;8.10;99.90
19586;DHT22;9939;49.246;9.106;2023-04-25T00:43:21;8.00;99.90
19586;DHT22;9939;49.246;9.106;2023-04-25T00:46:09;8.20;99.90
19586;DHT22;9939;49.246;9.106;2023-04-25T00:48:56;8.10;99.90
19586;DHT22;9939;49.246;9.106;2023-04-25T00:51:44;8.10;99.90
19586;DHT22;9939;49.246;9.106;2023-04-25T00:54:31;8.10;99.90
19586;DHT22;9939;49.246;9.106;2023-04-25T00:57:19;8.20;99.90
19586;DHT22;9939;49.246;9.106;2023-04-25T01:00:06;8.20;99.90
19586;DHT22;9939;49.246;9.106;2023-04-25T01:02:54;8.20;99.90
19586;DHT22;9939;49.246;9.106;2023-04-25T01:05:42;8.20;99.90
19586;DHT22;9939;49.246;9.106;2023-04-25T01:08:29;6.50;99.90
19586;DHT22;9939;49.246;9.106;2023-04-25T01:11:17;8.10;99.90
19586;DHT22;9939;49.246;9.106;2023-04-25T01:14:04;8.10;99.90
19586;DHT22;9939;49.246;9.106;2023-04-25T01:16:52;8.00;99.90
19586;DHT22;9939;49.246;9.106;2023-04-25T01:19:40;8.00;99.90
19586;DHT22;9939;49.246;9.106;2023-04-25T01:22:27;8.00;99.90
19586;DHT22;9939;49.246;9.106;2023-04-25T01:25:15;8.00;99.90
19586;DHT22;9939;49.246;9.106;2023-04-25T01:28:03;8.00;99.90
19586;DHT22;9939;49.246;9.106;2023-04-25T01:30:51;8.00;99.90
19586;DHT22;9939;49.246;9.106;2023-04-25T01:33:42;8.10;99.90
19586;DHT22;9939;49.246;9.106;2023-04-25T01:36:29;8.00;99.90
19586;DHT22;9939;49.246;9.106;2023-04-25T01:39:18;8.00;99.90
19586;DHT22;9939;49.246;9.106;2023-04-25T01:42:05;7.90;99.90
19586;DHT22;9939;49.246;9.106;2023-04-25T01:44:52;8.00;99.90
19586;DHT22;9939;49.246;9.106;2023-04-25T01:47:40;7.90;99.90
19586;DHT22;9939;49.246;9.106;2023-04-25T01:50:30;7.90;99.90
19586;DHT22;9939;49.246;9.106;2023-04-25T01:53:17;7.80;99.90
19586;DHT22;9939;49.246;9.106;2023-04-25T01:56:05;7.90;99.90
19586;DHT22;9939;49.246;9.106;2023-04-25T01:58:55;8.00;99.90
19586;DHT22;9939;49.246;9.106;2023-04-25T02:02:07;8.00;99.90
19586;DHT22;9939;49.246;9.106;2023-04-25T02:04:55;8.00;99.90
19586;DHT22;9939;49.246;9.106;2023-04-25T02:07:45;7.90;99.90
19586;DHT22;9939;49.246;9.106;2023-04-25T02:10:33;8.10;99.90
19586;DHT22;9939;49.246;9.106;2023-04-25T02:13:29;8.20;99.90
19586;DHT22;9939;49.246;9.106;2023-04-25T02:16:20;8.10;99.90
19586;DHT22;9939;49.246;9.106;2023-04-25T02:19:07;8.00;99.90
19586;DHT22;9939;49.246;9.106;2023-04-25T02:21:55;8.00;99.90
19586;DHT22;9939;49.246;9.106;2023-04-25T02:24:45;8.00;99.90
19586;DHT22;9939;49.246;9.106;2023-04-25T02:27:33;8.00;99.90
19586;DHT22;9939;49.246;9.106;2023-04-25T02:30:21;7.90;99.90
19586;DHT22;9939;49.246;9.106;2023-04-25T02:33:08;7.90;99.90
19586;DHT22;9939;49.246;9.106;2023-04-25T02:35:56;8.00;99.90
19586;DHT22;9939;49.246;9.106;2023-04-25T02:38:43;8.10;99.90
19586;DHT22;9939;49.246;9.106;2023-04-25T02:41:31;8.00;99.90
19586;DHT22;9939;49.246;9.106;2023-04-25T02:44:18;7.90;99.90
19586;DHT22;9939;49.246;9.106;2023-04-25T02:47:05;7.90;99.90
19586;DHT22;9939;49.246;9.106;2023-04-25T02:49:53;8.00;99.90
19586;DHT22;9939;49.246;9.106;2023-04-25T02:52:40;8.00;99.90
19586;DHT22;9939;49.246;9.106;2023-04-25T02:55:33;8.00;99.90
19586;DHT22;9939;49.246;9.106;2023-04-25T02:58:22;7.90;99.90
19586;DHT22;9939;49.246;9.106;2023-04-25T03:01:12;8.30;99.90
19586;DHT22;9939;49.246;9.106;2023-04-25T03:03:59;8.10;99.90
19586;DHT22;9939;49.246;9.106;2023-04-25T03:06:47;8.00;99.90
19586;DHT22;9939;49.246;9.106;2023-04-25T03:09:34;7.80;99.90
19586;DHT22;9939;49.246;9.106;2023-04-25T03:12:22;7.90;99.90
19586;DHT22;9939;49.246;9.106;2023-04-25T03:15:10;7.90;99.90
19586;DHT22;9939;49.246;9.106;2023-04-25T03:17:57;7.90;99.90
19586;DHT22;9939;49.246;9.106;2023-04-25T03:20:48;8.20;99.90
19586;DHT22;9939;49.246;9.106;2023-04-25T03:23:35;8.20;99.90
19586;DHT22;9939;49.246;9.106;2023-04-25T03:26:22;8.10;99.90
19586;DHT22;9939;49.246;9.106;2023-04-25T03:29:10;8.10;99.90
19586;DHT22;9939;49.246;9.106;2023-04-25T03:31:58;8.00;99.90
19586;DHT22;9939;49.246;9.106;2023-04-25T03:34:46;8.00;99.90
19586;DHT22;9939;49.246;9.106;2023-04-25T03:37:34;8.10;99.90
19586;DHT22;9939;49.246;9.106;2023-04-25T03:40:21;8.10;99.90
19586;DHT22;9939;49.246;9.106;2023-04-25T03:43:25;8.10;99.90
19586;DHT22;9939;49.246;9.106;2023-04-25T03:46:21;7.90;99.90
19586;DHT22;9939;49.246;9.106;2023-04-25T03:49:09;8.10;99.90
19586;DHT22;9939;49.246;9.106;2023-04-25T03:52:19;8.20;99.90
19586;DHT22;9939;49.246;9.106;2023-04-25T03:55:07;8.10;99.90
19586;DHT22;9939;49.246;9.106;2023-04-25T03:57:57;8.10;99.90
19586;DHT22;9939;49.246;9.106;2023-04-25T04:00:45;7.90;99.90
19586;DHT22;9939;49.246;9.106;2023-04-25T04:03:35;8.20;99.90
19586;DHT22;9939;49.246;9.106;2023-04-25T04:06:26;7.90;99.90
19586;DHT22;9939;49.246;9.106;2023-04-25T04:09:22;7.80;99.90
19586;DHT22;9939;49.246;9.106;2023-04-25T04:12:10;7.80;99.90
19586;DHT22;9939;49.246;9.106;2023-04-25T04:15:00;7.70;99.90
19586;DHT22;9939;49.246;9.106;2023-04-25T04:17:49;7.50;99.90
19586;DHT22;9939;49.246;9.106;2023-04-25T04:20:38;7.60;99.90
19586;DHT22;9939;49.246;9.106;2023-04-25T04:23:26;7.50;99.90
19586;DHT22;9939;49.246;9.106;2023-04-25T04:26:16;7.50;99.90
19586;DHT22;9939;49.246;9.106;2023-04-25T04:29:15;7.60;99.90
19586;DHT22;9939;49.246;9.106;2023-04-25T04:32:26;7.70;99.90
19586;DHT22;9939;49.246;9.106;2023-04-25T04:35:15;7.50;99.90
19586;DHT22;9939;49.246;9.106;2023-04-25T04:38:02;7.70;99.90
19586;DHT22;9939;49.246;9.106;2023-04-25T04:40:53;7.60;99.90
19586;DHT22;9939;49.246;9.106;2023-04-25T04:43:56;7.50;99.90
19586;DHT22;9939;49.246;9.106;2023-04-25T04:46:57;7.60;99.90
19586;DHT22;9939;49.246;9.106;2023-04-25T04:50:10;7.70;99.90
19586;DHT22;9939;49.246;9.106;2023-04-25T04:53:13;7.80;99.90
19586;DHT22;9939;49.246;9.106;2023-04-25T04:56:19;7.80;99.90
19586;DHT22;9939;49.246;9.106;2023-04-25T04:59:21;7.70;99.90
19586;DHT22;9939;49.246;9.106;2023-04-25T05:02:26;7.70;99.90
19586;DHT22;9939;49.246;9.106;2023-04-25T05:05:27;7.80;99.90
19586;DHT22;9939;49.246;9.106;2023-04-25T05:08:38;7.70;99.90
19586;DHT22;9939;49.246;9.106;2023-04-25T05:11:44;7.80;99.90
19586;DHT22;9939;49.246;9.106;2023-04-25T05:14:49;7.80;99.90
19586;DHT22;9939;49.246;9.106;2023-04-25T05:17:59;7.70;99.90
19586;DHT22;9939;49.246;9.106;2023-04-25T05:21:07;7.80;99.90
19586;DHT22;9939;49.246;9.106;2023-04-25T05:24:18;7.80;99.90
19586;DHT22;9939;49.246;9.106;2023-04-25T05:27:31;7.90;99.90
19586;DHT22;9939;49.246;9.106;2023-04-25T05:30:34;7.80;99.90
19586;DHT22;9939;49.246;9.106;2023-04-25T05:33:29;8.00;99.90
19586;DHT22;9939;49.246;9.106;2023-04-25T05:36:17;8.00;99.90
19586;DHT22;9939;49.246;9.106;2023-04-25T05:39:06;7.90;99.90
19586;DHT22;9939;49.246;9.106;2023-04-25T05:42:12;7.90;99.90
19586;DHT22;9939;49.246;9.106;2023-04-25T05:45:19;8.00;99.90
19586;DHT22;9939;49.246;9.106;2023-04-25T05:48:39;8.00;99.90
19586;DHT22;9939;49.246;9.106;2023-04-25T05:51:45;8.20;99.90
19586;DHT22;9939;49.246;9.106;2023-04-25T05:54:51;8.40;99.90
19586;DHT22;9939;49.246;9.106;2023-04-25T05:57:40;8.30;99.90
19586;DHT22;9939;49.246;9.106;2023-04-25T06:00:29;8.20;99.90
19586;DHT22;9939;49.246;9.106;2023-04-25T06:03:17;8.30;99.90
19586;DHT22;9939;49.246;9.106;2023-04-25T06:06:08;8.20;99.90
19586;DHT22;9939;49.246;9.106;2023-04-25T06:08:56;8.40;99.90
19586;DHT22;9939;49.246;9.106;2023-04-25T06:11:44;8.50;99.90
19586;DHT22;9939;49.246;9.106;2023-04-25T06:14:32;8.70;99.90
19586;DHT22;9939;49.246;9.106;2023-04-25T06:17:19;9.00;99.90
19586;DHT22;9939;49.246;9.106;2023-04-25T06:20:09;9.10;99.90
19586;DHT22;9939;49.246;9.106;2023-04-25T06:22:57;9.50;99.90
19586;DHT22;9939;49.246;9.106;2023-04-25T06:26:00;9.70;99.90
19586;DHT22;9939;49.246;9.106;2023-04-25T06:28:50;9.70;99.90
19586;DHT22;9939;49.246;9.106;2023-04-25T06:31:37;10.10;99.90
19586;DHT22;9939;49.246;9.106;2023-04-25T06:34:25;10.20;99.90
19586;DHT22;9939;49.246;9.106;2023-04-25T06:37:13;10.20;99.90
19586;DHT22;9939;49.246;9.106;2023-04-25T06:40:01;10.00;99.90
19586;DHT22;9939;49.246;9.106;2023-04-25T06:42:49;9.90;99.90
19586;DHT22;9939;49.246;9.106;2023-04-25T06:45:56;9.90;99.90
19586;DHT22;9939;49.246;9.106;2023-04-25T06:48:47;10.10;99.90
19586;DHT22;9939;49.246;9.106;2023-04-25T06:51:36;10.40;99.90
19586;DHT22;9939;49.246;9.106;2023-04-25T06:54:24;10.50;99.90
19586;DHT22;9939;49.246;9.106;2023-04-25T06:57:20;10.50;99.90
19586;DHT22;9939;49.246;9.106;2023-04-25T07:00:07;10.30;99.90
19586;DHT22;9939;49.246;9.106;2023-04-25T07:02:57;10.60;99.90
19586;DHT22;9939;49.246;9.106;2023-04-25T07:05:45;10.90;99.90
19586;DHT22;9939;49.246;9.106;2023-04-25T07:08:33;10.90;99.90
19586;DHT22;9939;49.246;9.106;2023-04-25T07:11:20;11.10;99.90
19586;DHT22;9939;49.246;9.106;2023-04-25T07:14:08;12.70;99.90
19586;DHT22;9939;49.246;9.106;2023-04-25T07:16:55;11.30;99.90
19586;DHT22;9939;49.246;9.106;2023-04-25T07:19:45;11.30;99.90
19586;DHT22;9939;49.246;9.106;2023-04-25T07:22:33;11.50;99.90
19586;DHT22;9939;49.246;9.106;2023-04-25T07:25:22;11.40;99.90
19586;DHT22;9939;49.246;9.106;2023-04-25T07:28:10;11.60;99.90
19586;DHT22;9939;49.246;9.106;2023-04-25T07:30:57;11.40;99.90
19586;DHT22;9939;49.246;9.106;2023-04-25T07:33:45;11.60;99.90
19586;DHT22;9939;49.246;9.106;2023-04-25T07:36:33;11.20;99.90
19586;DHT22;9939;49.246;9.106;2023-04-25T07:39:20;11.20;99.90
19586;DHT22;9939;49.246;9.106;2023-04-25T07:42:07;11.60;99.90
19586;DHT22;9939;49.246;9.106;2023-04-25T07:44:59;11.50;99.90
19586;DHT22;9939;49.246;9.106;2023-04-25T07:47:48;11.70;99.90
19586;DHT22;9939;49.246;9.106;2023-04-25T07:50:35;11.30;99.90
19586;DHT22;9939;49.246;9.106;2023-04-25T07:53:23;11.10;99.90
19586;DHT22;9939;49.246;9.106;2023-04-25T07:56:15;11.00;99.90
19586;DHT22;9939;49.246;9.106;2023-04-25T07:59:06;11.00;99.90
19586;DHT22;9939;49.246;9.106;2023-04-25T08:01:54;11.00;99.90
19586;DHT22;9939;49.246;9.106;2023-04-25T08:04:42;10.90;99.90
19586;DHT22;9939;49.246;9.106;2023-04-25T08:07:32;10.80;99.90
19586;DHT22;9939;49.246;9.106;2023-04-25T08:10:23;10.60;99.90
19586;DHT22;9939;49.246;9.106;2023-04-25T08:13:11;11.20;99.90
19586;DHT22;9939;49.246;9.106;2023-04-25T08:15:59;11.40;99.90
19586;DHT22;9939;49.246;9.106;2023-04-25T08:18:47;11.50;99.90
19586;DHT22;9939;49.246;9.106;2023-04-25T08:21:35;11.60;99.90
19586;DHT22;9939;49.246;9.106;2023-04-25T08:24:26;11.30;99.90
19586;DHT22;9939;49.246;9.106;2023-04-25T08:27:14;11.20;99.90
19586;DHT22;9939;49.246;9.106;2023-04-25T08:30:02;11.40;99.90
19586;DHT22;9939;49.246;9.106;2023-04-25T08:32:50;11.40;99.90
19586;DHT22;9939;49.246;9.106;2023-04-25T08:35:58;11.50;99.90
19586;DHT22;9939;49.246;9.106;2023-04-25T08:38:47;11.50;99.90
19586;DHT22;9939;49.246;9.106;2023-04-25T08:41:38;11.40;99.90
19586;DHT22;9939;49.246;9.106;2023-04-25T08:44:26;11.30;99.90
19586;DHT22;9939;49.246;9.106;2023-04-25T08:47:13;11.40;99.90
19586;DHT22;9939;49.246;9.106;2023-04-25T08:50:06;11.60;99.90
19586;DHT22;9939;49.246;9.106;2023-04-25T08:52:54;11.40;99.90
19586;DHT22;9939;49.246;9.106;2023-04-25T08:55:45;11.60;99.90
19586;DHT22;9939;49.246;9.106;2023-04-25T08:58:33;11.40;99.90
19586;DHT22;9939;49.246;9.106;2023-04-25T09:01:21;12.30;99.90
19586;DHT22;9939;49.246;9.106;2023-04-25T09:04:12;12.70;99.90
19586;DHT22;9939;49.246;9.106;2023-04-25T09:07:00;12.20;99.90
19586;DHT22;9939;49.246;9.106;2023-04-25T09:09:48;12.80;99.90
19586;DHT22;9939;49.246;9.106;2023-04-25T09:12:39;13.20;99.90
19586;DHT22;9939;49.246;9.106;2023-04-25T09:15:28;13.20;99.90
19586;DHT22;9939;49.246;9.106;2023-04-25T09:18:35;13.10;99.90
19586;DHT22;9939;49.246;9.106;2023-04-25T09:21:22;12.70;99.90
19586;DHT22;9939;49.246;9.106;2023-04-25T09:24:10;12.50;99.90
19586;DHT22;9939;49.246;9.106;2023-04-25T09:26:58;12.40;99.90
19586;DHT22;9939;49.246;9.106;2023-04-25T09:29:45;12.60;99.90
19586;DHT22;9939;49.246;9.106;2023-04-25T09:32:34;12.70;99.90
19586;DHT22;9939;49.246;9.106;2023-04-25T09:35:25;12.70;99.90
19586;DHT22;9939;49.246;9.106;2023-04-25T09:38:19;13.00;99.90
19586;DHT22;9939;49.246;9.106;2023-04-25T09:41:21;13.60;99.90
19586;DHT22;9939;49.246;9.106;2023-04-25T09:44:12;14.30;99.90
19586;DHT22;9939;49.246;9.106;2023-04-25T09:47:02;13.80;99.90
19586;DHT22;9939;49.246;9.106;2023-04-25T09:49:51;13.10;99.90
19586;DHT22;9939;49.246;9.106;2023-04-25T09:52:40;12.70;99.90
19586;DHT22;9939;49.246;9.106;2023-04-25T09:55:41;13.10;99.90
19586;DHT22;9939;49.246;9.106;2023-04-25T09:58:29;13.60;99.90
19586;DHT22;9939;49.246;9.106;2023-04-25T10:01:20;14.00;99.90
19586;DHT22;9939;49.246;9.106;2023-04-25T10:04:32;14.80;99.90
19586;DHT22;9939;49.246;9.106;2023-04-25T10:07:26;15.50;99.90
19586;DHT22;9939;49.246;9.106;2023-04-25T10:10:16;16.00;99.90
19586;DHT22;9939;49.246;9.106;2023-04-25T10:13:05;16.10;99.90
19586;DHT22;9939;49.246;9.106;2023-04-25T10:15:53;15.30;99.90
19586;DHT22;9939;49.246;9.106;2023-04-25T10:18:41;14.90;99.90
19586;DHT22;9939;49.246;9.106;2023-04-25T10:21:28;14.20;99.90
19586;DHT22;9939;49.246;9.106;2023-04-25T10:24:19;13.90;99.90
19586;DHT22;9939;49.246;9.106;2023-04-25T10:27:06;14.10;99.90
19586;DHT22;9939;49.246;9.106;2023-04-25T10:30:04;15.40;99.90
19586;DHT22;9939;49.246;9.106;2023-04-25T10:32:52;16.90;99.90
19586;DHT22;9939;49.246;9.106;2023-04-25T10:35:41;18.80;99.90
19586;DHT22;9939;49.246;9.106;2023-04-25T10:38:29;19.30;99.90
19586;DHT22;9939;49.246;9.106;2023-04-25T10:41:18;19.90;99.90
19586;DHT22;9939;49.246;9.106;2023-04-25T10:44:06;18.50;99.90
19586;DHT22;9939;49.246;9.106;2023-04-25T10:47:00;17.20;99.90
19586;DHT22;9939;49.246;9.106;2023-04-25T10:49:48;17.30;99.90
19586;DHT22;9939;49.246;9.106;2023-04-25T10:52:40;19.00;99.90
19586;DHT22;9939;49.246;9.106;2023-04-25T10:55:38;21.20;99.90
19586;DHT22;9939;49.246;9.106;2023-04-25T10:58:35;20.60;99.90
19586;DHT22;9939;49.246;9.106;2023-04-25T11:01:24;21.00;99.90
19586;DHT22;9939;49.246;9.106;2023-04-25T11:07:34;18.60;99.90
19586;DHT22;9939;49.246;9.106;2023-04-25T11:10:28;19.00;99.90
19586;DHT22;9939;49.246;9.106;2023-04-25T11:13:15;20.20;99.90
19586;DHT22;9939;49.246;9.106;2023-04-25T11:16:03;19.80;99.90
19586;DHT22;9939;49.246;9.106;2023-04-25T11:18:59;19.10;99.90
19586;DHT22;9939;49.246;9.106;2023-04-25T11:21:46;18.70;99.90
19586;DHT22;9939;49.246;9.106;2023-04-25T11:24:34;18.80;99.90
19586;DHT22;9939;49.246;9.106;2023-04-25T11:27:21;19.00;99.90
19586;DHT22;9939;49.246;9.106;2023-04-25T11:30:18;18.00;99.90
19586;DHT22;9939;49.246;9.106;2023-04-25T11:33:05;17.00;99.90
19586;DHT22;9939;49.246;9.106;2023-04-25T11:35:53;15.60;99.90
19586;DHT22;9939;49.246;9.106;2023-04-25T11:38:42;15.40;99.90
19586;DHT22;9939;49.246;9.106;2023-04-25T11:41:29;15.20;99.90
19586;DHT22;9939;49.246;9.106;2023-04-25T11:44:17;16.00;99.90
19586;DHT22;9939;49.246;9.106;2023-04-25T11:47:05;16.40;99.90
19586;DHT22;9939;49.246;9.106;2023-04-25T11:49:53;15.80;99.90
19586;DHT22;9939;49.246;9.106;2023-04-25T11:52:41;16.30;99.90
19586;DHT22;9939;49.246;9.106;2023-04-25T11:55:29;16.30;99.90
19586;DHT22;9939;49.246;9.106;2023-04-25T11:58:17;14.90;99.90
19586;DHT22;9939;49.246;9.106;2023-04-25T12:01:04;14.10;99.90
19586;DHT22;9939;49.246;9.106;2023-04-25T12:03:52;13.70;99.90
19586;DHT22;9939;49.246;9.106;2023-04-25T12:06:41;13.50;99.90
19586;DHT22;9939;49.246;9.106;2023-04-25T12:09:29;13.40;99.90
19586;DHT22;9939;49.246;9.106;2023-04-25T12:12:17;13.70;99.90
19586;DHT22;9939;49.246;9.106;2023-04-25T12:17:58;14.80;99.90
19586;DHT22;9939;49.246;9.106;2023-04-25T12:20:46;15.20;99.90
19586;DHT22;9939;49.246;9.106;2023-04-25T12:23:33;15.00;99.90
19586;DHT22;9939;49.246;9.106;2023-04-25T12:26:20;14.20;99.90
19586;DHT22;9939;49.246;9.106;2023-04-25T12:29:22;13.40;99.90
19586;DHT22;9939;49.246;9.106;2023-04-25T12:32:13;13.00;99.90
19586;DHT22;9939;49.246;9.106;2023-04-25T12:35:00;13.00;99.90
19586;DHT22;9939;49.246;9.106;2023-04-25T12:37:48;13.20;99.90
19586;DHT22;9939;49.246;9.106;2023-04-25T12:40:35;13.60;99.90
19586;DHT22;9939;49.246;9.106;2023-04-25T12:43:23;14.00;99.90
19586;DHT22;9939;49.246;9.106;2023-04-25T12:46:10;15.20;99.90
19586;DHT22;9939;49.246;9.106;2023-04-25T12:48:57;18.70;99.90
19586;DHT22;9939;49.246;9.106;2023-04-25T12:52:05;21.20;99.90
19586;DHT22;9939;49.246;9.106;2023-04-25T12:54:52;20.20;99.90
19586;DHT22;9939;49.246;9.106;2023-04-25T12:57:40;18.10;99.90
19586;DHT22;9939;49.246;9.106;2023-04-25T13:00:27;16.40;99.90
19586;DHT22;9939;49.246;9.106;2023-04-25T13:03:14;16.30;99.90
19586;DHT22;9939;49.246;9.106;2023-04-25T13:06:02;17.00;99.90
19586;DHT22;9939;49.246;9.106;2023-04-25T13:08:49;18.30;99.90
19586;DHT22;9939;49.246;9.106;2023-04-25T13:11:37;17.60;99.90
19586;DHT22;9939;49.246;9.106;2023-04-25T13:14:25;15.70;99.90
19586;DHT22;9939;49.246;9.106;2023-04-25T13:17:12;15.20;99.90
19586;DHT22;9939;49.246;9.106;2023-04-25T13:20:00;17.10;99.90
19586;DHT22;9939;49.246;9.106;2023-04-25T13:22:47;20.00;99.90
19586;DHT22;9939;49.246;9.106;2023-04-25T13:25:35;23.30;98.40
19586;DHT22;9939;49.246;9.106;2023-04-25T13:28:22;25.60;94.80
19586;DHT22;9939;49.246;9.106;2023-04-25T13:31:10;25.00;94.20
19586;DHT22;9939;49.246;9.106;2023-04-25T13:33:57;24.20;93.30
19586;DHT22;9939;49.246;9.106;2023-04-25T13:36:45;22.80;95.00
19586;DHT22;9939;49.246;9.106;2023-04-25T13:39:32;21.40;97.20
19586;DHT22;9939;49.246;9.106;2023-04-25T13:42:19;20.40;98.30
19586;DHT22;9939;49.246;9.106;2023-04-25T13:45:07;19.50;98.40
19586;DHT22;9939;49.246;9.106;2023-04-25T13:47:54;19.40;99.90
19586;DHT22;9939;49.246;9.106;2023-04-25T13:50:42;17.60;99.90
19586;DHT22;9939;49.246;9.106;2023-04-25T13:53:29;17.60;99.90
19586;DHT22;9939;49.246;9.106;2023-04-25T13:56:17;17.40;99.90
19586;DHT22;9939;49.246;9.106;2023-04-25T13:59:06;16.90;99.90
19586;DHT22;9939;49.246;9.106;2023-04-25T14:01:54;17.20;99.90
19586;DHT22;9939;49.246;9.106;2023-04-25T14:04:41;18.40;99.90
19586;DHT22;9939;49.246;9.106;2023-04-25T14:07:29;19.00;99.90
19586;DHT22;9939;49.246;9.106;2023-04-25T14:10:17;21.50;99.90
19586;DHT22;9939;49.246;9.106;2023-04-25T14:13:04;23.10;98.10
19586;DHT22;9939;49.246;9.106;2023-04-25T14:15:54;25.30;92.60
19586;DHT22;9939;49.246;9.106;2023-04-25T14:18:41;26.40;89.80
19586;DHT22;9939;49.246;9.106;2023-04-25T14:21:29;26.10;90.80
19586;DHT22;9939;49.246;9.106;2023-04-25T14:24:18;28.00;87.40
19586;DHT22;9939;49.246;9.106;2023-04-25T14:27:06;28.00;85.40
19586;DHT22;9939;49.246;9.106;2023-04-25T14:29:53;25.90;87.90
19586;DHT22;9939;49.246;9.106;2023-04-25T14:32:40;24.60;88.10
19586;DHT22;9939;49.246;9.106;2023-04-25T14:35:28;23.00;91.60
19586;DHT22;9939;49.246;9.106;2023-04-25T14:38:15;21.00;92.60
19586;DHT22;9939;49.246;9.106;2023-04-25T14:41:03;21.50;93.70
19586;DHT22;9939;49.246;9.106;2023-04-25T14:43:50;23.70;91.80
19586;DHT22;9939;49.246;9.106;2023-04-25T14:46:38;25.60;89.30
19586;DHT22;9939;49.246;9.106;2023-04-25T14:49:25;23.20;90.30
19586;DHT22;9939;49.246;9.106;2023-04-25T14:52:13;21.20;91.50
19586;DHT22;9939;49.246;9.106;2023-04-25T14:55:00;20.20;93.80
19586;DHT22;9939;49.246;9.106;2023-04-25T14:57:53;20.60;93.60
19586;DHT22;9939;49.246;9.106;2023-04-25T15:00:43;21.30;91.90
19586;DHT22;9939;49.246;9.106;2023-04-25T15:03:31;19.40;94.30
19586;DHT22;9939;49.246;9.106;2023-04-25T15:06:19;18.20;97.10
19586;DHT22;9939;49.246;9.106;2023-04-25T15:09:06;17.20;97.30
19586;DHT22;9939;49.246;9.106;2023-04-25T15:11:54;19.10;96.50
19586;DHT22;9939;49.246;9.106;2023-04-25T15:14:41;20.10;94.20
19586;DHT22;9939;49.246;9.106;2023-04-25T15:17:29;19.50;94.10
19586;DHT22;9939;49.246;9.106;2023-04-25T15:20:18;18.50;97.20
19586;DHT22;9939;49.246;9.106;2023-04-25T15:23:05;17.40;99.40
19586;DHT22;9939;49.246;9.106;2023-04-25T15:25:53;16.10;99.90
19586;DHT22;9939;49.246;9.106;2023-04-25T15:28:40;15.00;99.90
19586;DHT22;9939;49.246;9.106;2023-04-25T15:31:28;14.80;99.90
19586;DHT22;9939;49.246;9.106;2023-04-25T15:34:15;15.80;99.90
19586;DHT22;9939;49.246;9.106;2023-04-25T15:37:03;15.90;99.90
19586;DHT22;9939;49.246;9.106;2023-04-25T15:39:59;17.60;99.90
19586;DHT22;9939;49.246;9.106;2023-04-25T15:42:48;16.70;99.90
19586;DHT22;9939;49.246;9.106;2023-04-25T15:45:39;15.20;99.90
19586;DHT22;9939;49.246;9.106;2023-04-25T15:48:27;14.70;99.90
19586;DHT22;9939;49.246;9.106;2023-04-25T15:51:14;14.40;99.90
19586;DHT22;9939;49.246;9.106;2023-04-25T15:54:03;14.20;99.90
19586;DHT22;9939;49.246;9.106;2023-04-25T15:56:51;13.90;99.90
19586;DHT22;9939;49.246;9.106;2023-04-25T15:59:38;14.00;99.90
19586;DHT22;9939;49.246;9.106;2023-04-25T16:02:26;13.80;99.90
19586;DHT22;9939;49.246;9.106;2023-04-25T16:05:13;13.60;99.90
19586;DHT22;9939;49.246;9.106;2023-04-25T16:08:01;13.30;99.90
19586;DHT22;9939;49.246;9.106;2023-04-25T16:10:50;13.10;99.90
19586;DHT22;9939;49.246;9.106;2023-04-25T16:13:39;12.90;99.90
19586;DHT22;9939;49.246;9.106;2023-04-25T16:16:26;12.80;99.90
19586;DHT22;9939;49.246;9.106;2023-04-25T16:19:13;12.70;99.90
19586;DHT22;9939;49.246;9.106;2023-04-25T16:22:01;12.80;99.90
19586;DHT22;9939;49.246;9.106;2023-04-25T16:24:49;12.60;99.90
19586;DHT22;9939;49.246;9.106;2023-04-25T16:27:36;12.20;99.90
19586;DHT22;9939;49.246;9.106;2023-04-25T16:30:26;12.10;99.90
19586;DHT22;9939;49.246;9.106;2023-04-25T16:33:13;12.10;99.90
19586;DHT22;9939;49.246;9.106;2023-04-25T16:36:01;11.90;99.90
19586;DHT22;9939;49.246;9.106;2023-04-25T16:38:48;11.90;99.90
19586;DHT22;9939;49.246;9.106;2023-04-25T16:41:36;11.80;99.90
19586;DHT22;9939;49.246;9.106;2023-04-25T16:44:24;11.60;99.90
19586;DHT22;9939;49.246;9.106;2023-04-25T16:47:11;11.40;99.90
19586;DHT22;9939;49.246;9.106;2023-04-25T16:50:04;11.50;99.90
19586;DHT22;9939;49.246;9.106;2023-04-25T16:52:51;11.40;99.90
19586;DHT22;9939;49.246;9.106;2023-04-25T16:55:40;11.50;99.90
19586;DHT22;9939;49.246;9.106;2023-04-25T16:58:28;11.40;99.90
19586;DHT22;9939;49.246;9.106;2023-04-25T17:01:15;11.30;99.90
19586;DHT22;9939;49.246;9.106;2023-04-25T17:04:03;11.20;99.90
19586;DHT22;9939;49.246;9.106;2023-04-25T17:06:50;11.00;99.90
19586;DHT22;9939;49.246;9.106;2023-04-25T17:09:38;10.90;99.90
19586;DHT22;9939;49.246;9.106;2023-04-25T17:12:25;10.90;99.90
19586;DHT22;9939;49.246;9.106;2023-04-25T17:15:13;10.90;99.90
19586;DHT22;9939;49.246;9.106;2023-04-25T17:18:00;11.00;99.90
19586;DHT22;9939;49.246;9.106;2023-04-25T17:20:48;10.90;99.90
19586;DHT22;9939;49.246;9.106;2023-04-25T17:23:35;11.00;99.90
19586;DHT22;9939;49.246;9.106;2023-04-25T17:26:23;11.00;99.90
19586;DHT22;9939;49.246;9.106;2023-04-25T17:29:10;10.90;99.90
19586;DHT22;9939;49.246;9.106;2023-04-25T17:31:57;10.90;99.90
19586;DHT22;9939;49.246;9.106;2023-04-25T17:34:45;10.80;99.90
19586;DHT22;9939;49.246;9.106;2023-04-25T17:37:34;10.90;99.90
19586;DHT22;9939;49.246;9.106;2023-04-25T17:40:21;10.90;99.90
19586;DHT22;9939;49.246;9.106;2023-04-25T17:43:08;10.80;99.90
19586;DHT22;9939;49.246;9.106;2023-04-25T17:45:56;10.80;99.90
19586;DHT22;9939;49.246;9.106;2023-04-25T17:48:43;10.80;99.90
19586;DHT22;9939;49.246;9.106;2023-04-25T17:51:31;10.80;99.90
19586;DHT22;9939;49.246;9.106;2023-04-25T17:54:18;10.70;99.90
19586;DHT22;9939;49.246;9.106;2023-04-25T17:57:08;10.70;99.90
19586;DHT22;9939;49.246;9.106;2023-04-25T17:59:55;10.70;99.90
19586;DHT22;9939;49.246;9.106;2023-04-25T18:02:43;10.70;99.90
19586;DHT22;9939;49.246;9.106;2023-04-25T18:05:33;10.60;99.90
19586;DHT22;9939;49.246;9.106;2023-04-25T18:08:20;10.60;99.90
19586;DHT22;9939;49.246;9.106;2023-04-25T18:11:08;10.60;99.90
19586;DHT22;9939;49.246;9.106;2023-04-25T18:13:55;10.50;99.90
19586;DHT22;9939;49.246;9.106;2023-04-25T18:16:43;10.40;99.90
19586;DHT22;9939;49.246;9.106;2023-04-25T18:19:30;10.40;99.90
19586;DHT22;9939;49.246;9.106;2023-04-25T18:22:18;10.20;99.90
19586;DHT22;9939;49.246;9.106;2023-04-25T18:25:05;10.30;99.90